LTCK/MSR METAR and TAF weather

Enter ICAO airport designator
Station Type Date Time Source
LTCK METAR 2019/10/23 11:50 UTC NOAA

LTCK 231150Z 26007KT 9999 FEW026CB SCT035 BKN080 17/07 Q1019


Station Type Date Time Source
LTCK Decoded METAR 2019/10/23 11:50 UTC NOAA

Mus Tur-Afb , Turkey (LTCK) 38-45N 041-40E
Oct 23, 2019 - 07:50 AM EDT / 2019.10.23 1150 UTC
Wind: from the W (260 degrees) at 8 MPH (7 KT):0
Visibility: greater than 7 mile(s):0
Sky conditions: mostly cloudy
Weather: Cumulonimbus clouds observed
Temperature: 62 F (17 C)
Dew Point: 44 F (7 C)
Relative Humidity: 51%
Pressure (altimeter): 30.09 in. Hg (1019 hPa)
ob: LTCK 231150Z 26007KT 9999 FEW026CB SCT035 BKN080 17/07 Q1019
cycle: 12

Station Type Date Time Source
LTCK TAF UTC NOAA

Error!

Example: see airport list